Bay Shore, MI

5:43 PM EDT on August 21, 2014 (GMT -0400)
Pellston Regional Airport Of Emmet County | Change Station
CLOSE
Current Station
Airport
Location: Pellston,
Elevation: 719 ft
Nearby Weather Stations

Elev 719 ft 45.57 °N, 84.80 °W | Updated 49 minutes ago

Overcast
Overcast
74 °F
Feels Like 74 °F
N
5
Wind Variable Wind from West

Today
High -- | Low -- °F
--% Chance of Precip.
Yesterday
High -- | Low -- °F
Precip. -- in
6:48 AM 8:37 PM
Waning Crescent, 12% visible
Pressure 29.98 in
Visibility 10.0 miles
Clouds Overcast 4900 ft
Dew Point 64 °F
Humidity 71%
Rainfall 0.00 in
Snow Depth Not available.
UV 1 out of 12
Pollen 9.40 out of 12
Ozone Good
PM2.5 Good
Flu Activity Not available.
METAR KPLN 212054Z AUTO 28004KT 10SM OVC049 23/18 A2998 RMK AO2 SLP151 T02330178 50001

More Conditions Fewer Conditions

Pressure 29.98 in
Visibility 10.0 miles
Clouds Overcast 4900 ft
Dew Point 64 °F
Humidity 71%
Rainfall 0.00 in
Snow Depth Not available.
UV 1 out of 12
Pollen 9.40 out of 12
Ozone Good
PM2.5 Good
Flu Activity Not available.
METAR KPLN 212054Z AUTO 28004KT 10SM OVC049 23/18 A2998 RMK AO2 SLP151 T02330178 50001

More Conditions Fewer Conditions

Nowcast | as of 5:00 PM EDT on August 21, 2014

At 6 PM...partly cloudy. Temperature 69. Light winds. At 8 PM...partly cloudy. Temperature 69. Light winds. At 10 PM...partly cloudy. Chance of rain showers and slight chance of thunderstorms. Temperature 64. Light winds. At 12 am...mostly cloudy. Chance of rain showers and slight chance of thunderstorms. Temperature 62. Light winds.

×

10-Day Weather Forecast

Almanac

Astronomy

Aug. 21, 2014 Rise Set
Actual Time 6:48 AM EDT 8:37 PM EDT
Civil Twilight 6:17 AM EDT 9:08 PM EDT
Nautical Twilight 5:38 AM EDT 9:47 PM EDT
Astronomical Twilight 4:56 AM EDT 10:29 PM EDT
Moon 3:13 AM EDT 6:09 PM EDT
Length of Visible Light 14h 51m
Length of Day
13h 48m
Tomorrow will be 2m 56s shorter.
Waning Crescent, 12% of the Moon is Illuminated
Today
Waning Crescent
Aug 25
New
Sep 2
First Quarter
Sep 8
Full
Sep 15
Last Quarter

Today's Extremes

State Highs State Lows

Community

WunderPhotos

Upload Photos

1,746,021 photos uploaded!

WunderBlogs® & News

Nearby

Air Quality

  Air Quality AQ Index Pollutant
Yesterday Good
OZONE
Yesterday Good
PM2.5
Current Good
OZONE
Current Good
PM2.5
Thursday Good
OZONE
Thursday Good
PM2.5
Friday Moderate
PM2.5
Friday Good
OZONE
Saturday Moderate
PM2.5
Saturday Good
OZONE
Sunday Moderate
PM2.5
Sunday Good
OZONE

Snow Depth

Station Depth Elevation
No new snow has been reported.

Earthquake Activity

City Distance Mag. Time & Date
No recent earthquake activity has been reported nearby.
Minimum magnitude displayed is 2.5.

Coastal Water Temperatures

Place Temperature
Mackinaw City, MI 66.9 °F
Port Inland, MI 62.1 °F

Nearby Weather Stations